Time;durP1;ratioP1;P1;durP2;ratioP2;P2;SDS_P1;SDS_P2;PMS_P1;PMS_P2;Temp;Humidity;BMP_temperature;BMP_pressure;BME280_temperature;BME280_humidity;BME280_pressure;Samples;Min_cycle;Max_cycle;Signal;HPM_P1;HPM_P2
2022/04/07 00:03:46;;;;;;;3.47;1.75;;;11.10;99.90;;;;;;6745077;88;20191;-78
2022/04/07 00:13:46;;;;;;;3.30;1.87;;;11.00;99.90;;;;;;6745158;88;20232;-79
2022/04/07 00:23:50;;;;;;;3.42;1.75;;;10.60;99.90;;;;;;6744142;88;20680;-79
2022/04/07 00:43:54;;;;;;;1.23;0.45;;;9.70;99.90;;;;;;6673163;89;20221;-83
2022/04/07 00:53:55;;;;;;;1.58;0.50;;;9.40;99.90;;;;;;6674497;89;20266;-80
2022/04/07 01:03:56;;;;;;;1.50;0.70;;;9.30;99.90;;;;;;6674930;89;20180;-80
2022/04/07 01:13:57;;;;;;;2.25;1.00;;;9.40;99.90;;;;;;6675394;89;20165;-80
2022/04/07 01:24:18;;;;;;;3.10;1.10;;;9.40;99.90;;;;;;6675697;89;20705;-81
2022/04/07 01:34:19;;;;;;;3.30;1.00;;;9.50;99.90;;;;;;6658268;88;20726;-80
2022/04/07 01:44:22;;;;;;;1.62;0.68;;;9.70;99.90;;;;;;6658190;89;20202;-81
2022/04/07 01:54:24;;;;;;;2.35;0.70;;;9.70;99.90;;;;;;6641086;89;20316;-80
2022/04/07 02:04:24;;;;;;;2.85;0.52;;;9.70;99.90;;;;;;6638763;89;20206;-82
2022/04/07 02:14:25;;;;;;;2.08;0.50;;;9.70;99.90;;;;;;6635649;89;20249;-80
2022/04/07 02:24:27;;;;;;;0.88;0.30;;;9.90;99.90;;;;;;6649585;89;20230;-81
2022/04/07 02:34:28;;;;;;;1.25;0.40;;;9.90;99.90;;;;;;6633610;89;20264;-82
2022/04/07 02:44:28;;;;;;;1.70;0.50;;;10.10;99.90;;;;;;6636338;89;20283;-81
2022/04/07 02:54:29;;;;;;;0.62;0.30;;;10.10;99.90;;;;;;6635683;89;20188;-80
2022/04/07 03:04:29;;;;;;;0.80;0.25;;;10.10;99.90;;;;;;6649367;89;20296;-80
2022/04/07 03:14:30;;;;;;;0.65;0.25;;;10.20;99.90;;;;;;6654808;88;20185;-80
2022/04/07 03:24:31;;;;;;;1.27;0.30;;;10.10;99.90;;;;;;6653774;88;20218;-80
2022/04/07 03:34:36;;;;;;;1.20;0.40;;;10.20;99.90;;;;;;6653543;89;20200;-81
2022/04/07 03:44:37;;;;;;;1.30;0.40;;;10.20;99.90;;;;;;6650088;89;20872;-83
2022/04/07 03:54:37;;;;;;;1.62;0.50;;;10.10;99.90;;;;;;6654262;88;20227;-80
2022/04/07 04:04:38;;;;;;;2.20;0.52;;;10.00;99.90;;;;;;6650474;89;20356;-80
2022/04/07 04:14:39;;;;;;;1.92;0.60;;;9.90;99.90;;;;;;6637775;89;20226;-80
2022/04/07 04:24:39;;;;;;;1.00;0.50;;;9.80;99.90;;;;;;6640036;89;20262;-80
2022/04/07 04:34:40;;;;;;;1.27;0.50;;;9.70;99.90;;;;;;6642303;89;20671;-81
2022/04/07 04:44:40;;;;;;;1.50;0.60;;;9.70;99.90;;;;;;6637071;89;20194;-81
2022/04/07 04:54:41;;;;;;;1.45;0.50;;;9.80;99.90;;;;;;6638204;89;20204;-80
2022/04/07 05:04:41;;;;;;;2.15;0.60;;;9.90;99.90;;;;;;6636459;89;20208;-80
2022/04/07 05:14:42;;;;;;;1.73;0.60;;;10.10;99.90;;;;;;6648758;89;20200;-80
2022/04/07 05:24:42;;;;;;;1.57;0.50;;;10.10;99.90;;;;;;6656358;89;20649;-79
2022/04/07 05:34:43;;;;;;;1.55;0.50;;;10.20;99.90;;;;;;6657224;88;20607;-80
2022/04/07 05:44:44;;;;;;;1.48;0.43;;;10.20;99.90;;;;;;6656049;88;20318;-81
2022/04/07 05:54:44;;;;;;;2.17;0.57;;;10.50;99.90;;;;;;6655603;88;20346;-83
2022/04/07 06:04:45;;;;;;;2.37;0.50;;;10.60;99.90;;;;;;6654056;88;20235;-81
2022/04/07 06:14:45;;;;;;;1.60;0.52;;;10.50;99.90;;;;;;6651591;88;20368;-82
2022/04/07 06:24:46;;;;;;;2.30;0.73;;;10.50;99.90;;;;;;6648468;89;20279;-82
2022/04/07 06:34:46;;;;;;;2.60;0.50;;;10.50;99.90;;;;;;6649421;88;20517;-82
2022/04/07 06:45:07;;;;;;;1.50;0.50;;;10.50;99.90;;;;;;6679168;78;20203;-79
2022/04/07 06:55:09;;;;;;;1.25;0.40;;;10.50;99.90;;;;;;6699031;88;20710;-79
2022/04/07 07:05:09;;;;;;;3.12;0.50;;;10.60;99.90;;;;;;6770920;87;20596;-79
2022/04/07 07:15:10;;;;;;;1.02;0.30;;;10.90;99.90;;;;;;6764571;87;20191;-78
2022/04/07 07:25:11;;;;;;;0.73;0.30;;;11.00;99.90;;;;;;6707268;87;20194;-79
2022/04/07 07:35:13;;;;;;;0.82;0.20;;;11.20;99.90;;;;;;6712056;88;20644;-79
2022/04/07 07:45:15;;;;;;;0.65;0.13;;;11.20;99.90;;;;;;6697688;88;20237;-78
2022/04/07 07:55:16;;;;;;;2.12;0.20;;;11.20;99.90;;;;;;6697516;88;20179;-78
2022/04/07 08:05:16;;;;;;;0.60;0.20;;;11.60;99.90;;;;;;6697690;88;20191;-78
2022/04/07 08:15:17;;;;;;;0.65;0.20;;;11.90;99.90;;;;;;6697495;88;20650;-78
2022/04/07 08:25:17;;;;;;;0.57;0.20;;;12.30;99.90;;;;;;6710850;88;20224;-79
2022/04/07 08:35:18;;;;;;;0.65;0.10;;;12.70;99.90;;;;;;6710659;88;20194;-79
2022/04/07 08:45:20;;;;;;;0.22;0.10;;;12.40;99.90;;;;;;6698268;88;20747;-80
2022/04/07 08:55:20;;;;;;;0.30;0.10;;;12.00;99.90;;;;;;6697763;88;20661;-80
2022/04/07 09:05:25;;;;;;;0.10;0.10;;;12.00;99.90;;;;;;6721914;88;20233;-79
2022/04/07 09:15:27;;;;;;;0.50;0.10;;;12.80;99.90;;;;;;6716062;88;20595;-80
2022/04/07 09:25:28;;;;;;;0.32;0.10;;;13.20;99.90;;;;;;6694467;88;20224;-80
2022/04/07 09:35:28;;;;;;;0.40;0.20;;;13.90;99.90;;;;;;6698586;88;20329;-80
2022/04/07 09:45:29;;;;;;;0.20;0.10;;;14.80;99.90;;;;;;6696595;88;20199;-79
2022/04/07 09:55:40;;;;;;;0.30;0.13;;;14.70;99.90;;;;;;6709351;88;20217;-79
2022/04/07 10:05:41;;;;;;;0.30;0.10;;;14.90;99.90;;;;;;6701828;88;20319;-77
2022/04/07 10:15:42;;;;;;;1.40;0.20;;;14.60;99.90;;;;;;6694777;88;20656;-77
2022/04/07 10:25:45;;;;;;;0.20;0.10;;;14.00;99.90;;;;;;6708539;88;20213;-78
2022/04/07 10:35:49;;;;;;;0.20;0.10;;;13.10;99.90;;;;;;6695049;88;20355;-78
2022/04/07 10:45:52;;;;;;;1.12;0.20;;;13.00;99.90;;;;;;6695504;88;20709;-79
2022/04/07 10:56:00;;;;;;;1.33;0.30;;;12.80;99.90;;;;;;6696766;88;20185;-79
2022/04/07 11:06:06;;;;;;;1.87;0.30;;;12.50;99.90;;;;;;6711043;88;20203;-79
2022/04/07 11:16:30;;;;;;;;;;;10.50;99.90;;;;;;6697805;88;20166;-79
2022/04/07 11:26:34;;;;;;;1.87;0.20;;;10.20;99.90;;;;;;6695733;88;20139;-78
2022/04/07 11:36:36;;;;;;;1.08;0.40;;;10.70;99.90;;;;;;6695179;88;20719;-78
2022/04/07 11:46:36;;;;;;;1.52;0.40;;;10.90;99.90;;;;;;6696590;88;20206;-79
2022/04/07 11:56:38;;;;;;;1.87;0.50;;;10.80;99.90;;;;;;6699173;88;20201;-78
2022/04/07 12:06:41;;;;;;;2.85;0.40;;;11.30;99.90;;;;;;6696624;88;20186;-79
2022/04/07 12:16:46;;;;;;;1.27;0.37;;;11.50;99.90;;;;;;6696161;88;20312;-79
2022/04/07 12:26:49;;;;;;;1.80;0.40;;;12.40;99.90;;;;;;6695524;88;20300;-78
2022/04/07 12:36:49;;;;;;;0.77;0.30;;;14.00;96.70;;;;;;6694074;88;20175;-78
2022/04/07 12:47:13;;;;;;;1.83;0.40;;;14.70;93.60;;;;;;6768238;76;20204;-80
2022/04/07 12:57:15;;;;;;;2.60;0.50;;;15.10;91.40;;;;;;6768883;88;20214;-80
2022/04/07 13:07:16;;;;;;;2.03;0.60;;;15.70;91.10;;;;;;6769256;88;20183;-80
2022/04/07 13:17:17;;;;;;;2.55;0.60;;;15.40;89.10;;;;;;6770292;88;20208;-80
2022/04/07 13:27:18;;;;;;;3.40;0.50;;;15.30;87.10;;;;;;6786777;87;20583;-80
2022/04/07 13:37:19;;;;;;;2.08;0.50;;;15.60;81.90;;;;;;6790667;87;20294;-81
2022/04/07 13:47:20;;;;;;;4.85;0.62;;;15.00;85.70;;;;;;6787981;87;20316;-79
2022/04/07 13:57:20;;;;;;;3.30;0.75;;;15.70;80.30;;;;;;6766976;87;20624;-80
2022/04/07 14:07:21;;;;;;;4.62;0.60;;;15.90;81.10;;;;;;6781124;87;20600;-79
2022/04/07 14:17:21;;;;;;;2.85;0.70;;;14.70;82.00;;;;;;6784635;87;20198;-80
2022/04/07 14:27:22;;;;;;;3.20;0.70;;;14.80;80.90;;;;;;6747681;88;20172;-79
2022/04/07 14:37:22;;;;;;;2.30;0.70;;;14.60;79.70;;;;;;6761364;87;20202;-81
2022/04/07 14:47:23;;;;;;;3.15;0.90;;;14.40;80.40;;;;;;6786218;87;20194;-80
2022/04/07 14:57:23;;;;;;;5.35;0.80;;;14.70;78.80;;;;;;6782822;87;20202;-80
2022/04/07 15:07:24;;;;;;;4.80;0.80;;;14.40;77.80;;;;;;6782120;87;20183;-79
2022/04/07 15:17:25;;;;;;;6.83;0.90;;;14.50;77.30;;;;;;6783380;87;20213;-79
2022/04/07 15:27:25;;;;;;;5.15;0.90;;;14.10;78.60;;;;;;6783807;87;20195;-78
2022/04/07 15:37:28;;;;;;;5.12;0.93;;;13.20;82.70;;;;;;6783167;87;20850;-80
2022/04/07 15:47:28;;;;;;;4.72;1.00;;;12.90;84.40;;;;;;6782884;87;20240;-81
2022/04/07 15:57:29;;;;;;;4.83;0.90;;;11.50;94.70;;;;;;6779366;87;20776;-80
2022/04/07 16:07:35;;;;;;;5.03;0.80;;;11.30;98.20;;;;;;6781962;87;20195;-80
2022/04/07 16:17:36;;;;;;;5.72;0.82;;;11.70;94.30;;;;;;6784910;87;20541;-79
2022/04/07 16:27:39;;;;;;;4.37;0.80;;;11.60;92.50;;;;;;6783738;87;20214;-78
2022/04/07 16:37:40;;;;;;;4.62;0.80;;;10.90;93.70;;;;;;6788417;87;20244;-80
2022/04/07 16:47:40;;;;;;;6.07;1.00;;;11.10;92.50;;;;;;6771208;88;20199;-82
2022/04/07 16:57:41;;;;;;;6.60;1.12;;;11.40;92.50;;;;;;6778572;87;20246;-80
2022/04/07 17:07:42;;;;;;;4.43;1.17;;;11.40;92.50;;;;;;6770243;87;20187;-79
2022/04/07 17:17:46;;;;;;;5.62;0.77;;;10.90;93.60;;;;;;6773594;87;20204;-79
2022/04/07 17:27:46;;;;;;;4.70;1.00;;;10.60;93.00;;;;;;6763375;88;20225;-80
2022/04/07 17:37:47;;;;;;;5.62;1.08;;;10.40;94.90;;;;;;6770083;87;20223;-80
2022/04/07 17:47:47;;;;;;;7.82;1.00;;;10.30;96.10;;;;;;6769659;87;20224;-78
2022/04/07 17:57:48;;;;;;;6.97;1.10;;;10.30;96.10;;;;;;6781085;87;20202;-79
2022/04/07 18:07:49;;;;;;;3.97;0.82;;;10.20;96.50;;;;;;6782662;87;20191;-80
2022/04/07 18:17:49;;;;;;;7.80;1.00;;;10.10;96.90;;;;;;6777981;87;20183;-79
2022/04/07 18:27:50;;;;;;;5.47;1.10;;;9.90;97.60;;;;;;6761468;88;20350;-79
2022/04/07 18:37:51;;;;;;;4.70;1.10;;;9.70;97.60;;;;;;6764343;88;20181;-79
2022/04/07 18:48:32;;;;;;;7.78;1.25;;;9.80;97.70;;;;;;6776291;77;20192;-81
2022/04/07 18:58:33;;;;;;;8.32;1.30;;;9.80;97.80;;;;;;6764018;88;20277;-81
2022/04/07 19:08:33;;;;;;;6.62;1.10;;;9.90;96.70;;;;;;6765962;88;20352;-82
2022/04/07 19:18:34;;;;;;;7.05;1.17;;;10.00;96.80;;;;;;6765489;88;20206;-81
2022/04/07 19:28:34;;;;;;;6.53;1.20;;;10.20;96.10;;;;;;6764685;88;20188;-82
2022/04/07 19:38:35;;;;;;;5.80;1.37;;;10.20;95.90;;;;;;6761117;88;20186;-80
2022/04/07 19:48:36;;;;;;;9.73;1.40;;;10.10;96.30;;;;;;6765307;88;20204;-82
2022/04/07 19:58:36;;;;;;;9.88;1.00;;;10.10;96.00;;;;;;6746649;88;20730;-81
2022/04/07 20:08:38;;;;;;;7.57;1.73;;;9.90;96.40;;;;;;6742512;88;20270;-82
2022/04/07 20:18:39;;;;;;;12.20;1.55;;;9.80;97.10;;;;;;6747563;88;20227;-81
2022/04/07 20:28:39;;;;;;;8.15;1.62;;;9.80;97.60;;;;;;6746078;88;20193;-81
2022/04/07 20:38:40;;;;;;;11.73;2.40;;;9.70;98.30;;;;;;6745577;88;20216;-81
2022/04/07 20:48:40;;;;;;;8.20;1.20;;;9.60;97.90;;;;;;6745744;88;20173;-82
2022/04/07 20:58:41;;;;;;;8.83;1.33;;;9.60;98.50;;;;;;6750455;88;20157;-82
2022/04/07 21:08:41;;;;;;;12.65;2.05;;;9.50;98.90;;;;;;6749099;88;20486;-82
2022/04/07 21:18:42;;;;;;;10.75;1.45;;;9.40;99.50;;;;;;6749194;88;20220;-81
2022/04/07 21:28:42;;;;;;;10.82;1.55;;;9.40;99.90;;;;;;6747323;88;20183;-81
2022/04/07 21:38:45;;;;;;;8.80;1.50;;;9.30;99.90;;;;;;6750738;88;21080;-81
2022/04/07 21:48:46;;;;;;;13.18;1.73;;;9.30;99.90;;;;;;6750648;88;20166;-82
2022/04/07 21:58:47;;;;;;;7.30;1.27;;;9.30;99.90;;;;;;6750630;88;20166;-82
2022/04/07 22:08:47;;;;;;;7.20;1.50;;;9.40;99.90;;;;;;6750211;88;20974;-81
2022/04/07 22:18:49;;;;;;;7.60;1.37;;;9.40;99.90;;;;;;6750866;88;20177;-82
2022/04/07 22:28:49;;;;;;;5.50;1.05;;;9.40;99.90;;;;;;6714691;88;20163;-82
2022/04/07 22:38:50;;;;;;;6.30;0.98;;;8.90;99.90;;;;;;6710673;88;20191;-82
2022/04/07 22:48:50;;;;;;;5.87;0.95;;;8.40;99.90;;;;;;6713746;88;20937;-80
2022/04/07 22:58:51;;;;;;;2.95;0.80;;;7.70;99.90;;;;;;6738806;88;20264;-81
2022/04/07 23:08:51;;;;;;;4.97;0.60;;;7.20;99.90;;;;;;6746341;88;20184;-82
2022/04/07 23:18:52;;;;;;;3.07;0.60;;;6.90;99.90;;;;;;6749952;88;20271;-81
2022/04/07 23:28:52;;;;;;;2.17;0.60;;;6.90;99.90;;;;;;6713530;88;20543;-81
2022/04/07 23:38:53;;;;;;;3.42;0.90;;;6.90;99.90;;;;;;6713925;88;20229;-81
2022/04/07 23:48:54;;;;;;;1.70;0.60;;;7.00;99.90;;;;;;6713711;88;20327;-81
2022/04/07 23:58:56;;;;;;;1.48;0.40;;;6.80;99.90;;;;;;6742187;88;20186;-81
